Flight Track Log - Related Links

Times and Time Zones

All times are in EDT time to prevent confusion due to time zone crossing. See the AAY877 flight status page for this flight to view local times or setup timezone preferences in your user account.

Time Position Orientation Groundspeed Altitude Reporting Facility
EDT Latitude Longitude Course Direction KTS km/h feet Rate Location/Type
Thu 18:24:29 42.1819 -89.1472 212° Southwest 179 332 31.000  Level Chicago Center
Thu 18:25:31 42.1450 -89.1786 212° Southwest 188 348 4.200 -12.145 Descending Chicago Center
Thu 18:26:33 42.0817 -89.1433 158° South 245 454 5.900 2.081 Climbing Chicago Center
Thu 18:27:35 42.0022 -89.1033 159° South 265 491 8.500 2.371 Climbing Chicago Center
Thu 18:28:37 41.9272 -89.0689 161° South 282 523 10.800 1.887 Climbing Chicago Center
Thu 18:29:39 41.8425 -89.0281 160° South 321 594 12.400 1.984 Climbing Chicago Center
Thu 18:30:41 41.7525 -88.9844 160° South 340 629 14.900 1.984 Climbing Chicago Center
Thu 18:31:43 41.6425 -88.9311 160° South 349 647 16.500 1.392 Climbing Chicago Center
Thu 18:32:46 41.5403 -88.8756 158° South 388 719 17.800 1.296 Climbing Chicago Center
Thu 18:33:48 41.4350 -88.8161 157° South 406 752 19.200 1.355 Climbing Chicago Center
Thu 18:34:50 41.3286 -88.7550 157° South 414 766 20.600 1.306 Climbing Chicago Center
Thu 18:35:52 41.2200 -88.6953 158° South 423 784 21.900 1.548 Climbing Chicago Center
Thu 18:36:54 41.0864 -88.6203 157° South 432 800 23.800 1.694 Climbing Chicago Center
Thu 18:37:56 40.9778 -88.5586 157° South 431 798 25.400 1.161 Climbing Chicago Center
Thu 18:38:58 40.8692 -88.4986 157° South 430 797 26.200 1.016 Climbing Chicago Center
Thu 18:40:00 40.7589 -88.4369 157° South 430 797 27.500 1.056 Climbing Chicago Center
Thu 18:41:03 40.6483 -88.3750 157° South 431 798 28.400 1.008 Climbing Chicago Center
Thu 18:42:05 40.5158 -88.3022 157° South 431 798 29.600 1.210 Climbing Chicago Center
Thu 18:43:07 40.4056 -88.2425 158° South 431 798 30.900 677 Climbing Chicago Center
Thu 18:44:09 40.2986 -88.1839 157° South 422 782 31.000 48 Climbing Chicago Center
Thu 18:45:11 40.1886 -88.1236 157° South 417 772 31.000  Level Chicago Center
Thu 18:46:13 40.0814 -88.0667 158° South 418 774 31.000  Level Chicago Center
Thu 18:47:15 39.9742 -88.0114 158° South 417 772 31.000  Level Chicago Center
Thu 18:48:17 39.8447 -87.9400 157° South 417 772 31.000  Level Chicago Center
Thu 18:48:54 39.7992 -87.9153 157° South 419 776 31.000  Level Indianapolis Center
Thu 18:49:58 39.6686 -87.8458 158° South 421 779 31.000  Level Indianapolis Center
Thu 18:50:58 39.5575 -87.7878 158° South 426 789 31.000  Level Indianapolis Center
Thu 18:52:02 39.4478 -87.7289 157° South 427 790 31.000  Level Indianapolis Center
Thu 18:53:03 39.3411 -87.6725 158° South 427 790 31.000  Level Indianapolis Center
Thu 18:54:04 39.2286 -87.6133 158° South 427 790 31.000  Level Indianapolis Center
Thu 18:55:08 39.0989 -87.5444 158° South 427 790 31.000  Level Indianapolis Center
Thu 18:56:08 38.9892 -87.4872 158° South 426 789 31.000  Level Indianapolis Center
Thu 18:57:12 38.8800 -87.4308 158° South 426 789 31.000  Level Indianapolis Center
Thu 18:58:12 38.7711 -87.3742 158° South 425 787 31.000  Level Indianapolis Center
Thu 18:59:16 38.6608 -87.3172 158° South 424 785 31.000  Level Indianapolis Center
Thu 19:00:17 38.5522 -87.2611 158° South 424 785 31.000  Level Indianapolis Center
Thu 19:01:18 38.4222 -87.1953 158° South 422 782 31.000  Level Indianapolis Center
Thu 19:02:22 38.3167 -87.1419 158° South 422 782 31.000  Level Indianapolis Center
Thu 19:03:23 38.2067 -87.0847 158° South 422 782 31.000  Level Indianapolis Center
Thu 19:04:24 38.0769 -87.0194 158° South 425 787 31.000  Level Indianapolis Center
Thu 19:05:29 37.9669 -86.9628 158° South 425 787 31.000  Level Indianapolis Center
Thu 19:06:29 37.8567 -86.9067 158° South 425 787 31.000  Level Indianapolis Center
Thu 19:07:33 37.7447 -86.8500 158° South 426 789 31.000  Level Indianapolis Center
Thu 19:08:34 37.6319 -86.7925 158° South 430 797 31.000  Level Indianapolis Center
Thu 19:09:35 37.5103 -86.7306 158° South 432 800 31.000  Level Indianapolis Center
Thu 19:10:39 37.3956 -86.6731 158° South 435 806 31.000  Level Indianapolis Center
Thu 19:11:39 37.2811 -86.6169 159° South 437 810 31.000  Level Indianapolis Center
Thu 19:12:43 37.1650 -86.5631 160° South 437 810 31.000 -520 Level Indianapolis Center
Thu 19:13:46 37.0250 -86.5139 164° South 441 816 29.900 -960 Descending Indianapolis Center
Thu 19:14:48 36.9069 -86.4711 164° South 440 814 29.000 -443 Descending Indianapolis Center
Thu 19:15:48 36.7861 -86.4283 164° South 440 814 29.000  Level Indianapolis Center
Thu 19:16:52 36.6653 -86.3847 164° South 442 819 29.000  Level Indianapolis Center
Thu 19:17:52 36.5425 -86.3411 164° South 448 830 29.000  Level Indianapolis Center
Thu 19:18:56 36.4189 -86.2972 164° South 450 834 29.000  Level Indianapolis Center
Thu 19:19:56 36.2969 -86.2547 164° South 450 834 29.000  Level Indianapolis Center
Thu 19:21:01 36.1747 -86.2125 164° South 450 834 29.000  Level Indianapolis Center
Thu 19:22:01 36.0519 -86.1700 164° South 450 834 29.000  Level Indianapolis Center
Thu 19:23:04 35.9100 -86.1192 164° South 450 834 29.000  Level Indianapolis Center
Thu 19:24:29 35.7447 -86.0622 164° South 451 835 29.000  Level Memphis Center
Thu 19:25:31 35.6208 -86.0211 165° South 452 837 29.000  Level Memphis Center
Thu 19:26:33 35.4819 -85.9719 164° South 452 837 29.000  Level Memphis Center
Thu 19:27:35 35.3597 -85.9308 165° South 453 838 29.000  Level Memphis Center
Thu 19:28:37 35.2392 -85.8889 164° South 453 838 29.000  Level Memphis Center
Thu 19:29:39 35.1186 -85.8475 164° South 453 838 29.000  Level Memphis Center
Thu 19:30:42 34.9978 -85.8053 164° South 453 838 29.000  Level Memphis Center
Thu 19:31:44 34.8767 -85.7647 165° South 453 838 29.000  Level Memphis Center
Thu 19:32:46 34.7325 -85.7156 164° South 453 838 29.000  Level Memphis Center
Thu 19:33:48 34.6119 -85.6750 165° South 452 837 29.000  Level Memphis Center
Thu 19:34:50 34.4847 -85.6319 164° South 452 837 29.000  Level Memphis Center
Thu 19:35:52 34.3697 -85.5928 164° South 452 837 29.000  Level Memphis Center
Thu 19:36:58 34.2253 -85.5486 166° South 450 834 29.000  Level Atlanta Center
Thu 19:37:58 34.1050 -85.5064 164° South 450 834 29.000  Level Atlanta Center
Thu 19:38:58 33.9822 -85.4667 165° South 450 834 29.000  Level Atlanta Center
Thu 19:39:58 33.8617 -85.4272 165° South 450 834 29.000  Level Atlanta Center
Thu 19:40:58 33.7431 -85.3878 165° South 450 834 29.000  Level Atlanta Center
Thu 19:41:58 33.6203 -85.3461 164° South 445 824 29.000  Level Atlanta Center
Thu 19:42:58 33.4997 -85.3069 165° South 450 834 29.000  Level Atlanta Center
Thu 19:43:58 33.3811 -85.2703 166° South 450 834 29.000  Level Atlanta Center
Thu 19:44:58 33.2603 -85.2314 165° South 450 834 29.000  Level Atlanta Center
Thu 19:45:58 33.1417 -85.1925 165° South 445 824 29.000  Level Atlanta Center
Thu 19:46:58 33.0461 -85.1539 161° South 445 824 29.000  Level Atlanta Center
Thu 19:47:58 32.9044 -85.1175 168° South 445 824 29.000  Level Atlanta Center
Thu 19:48:58 32.7881 -85.0742 163° South 445 824 29.000  Level Atlanta Center
Thu 19:49:58 32.6653 -85.0333 164° South 458 848 29.000  Level Atlanta Center
Thu 19:50:58 32.5464 -84.9975 166° South 452 837 29.000  Level Atlanta Center
Thu 19:51:58 32.4217 -84.9567 165° South 452 837 29.000  Level Atlanta Center
Thu 19:52:58 32.3153 -84.9211 164° South 452 837 29.000  Level Atlanta Center
Thu 19:53:58 32.1819 -84.8831 166° South 452 837 29.000  Level Atlanta Center
Thu 19:57:33 31.7542 -84.7469 165° South 449 832 29.000  Level Jacksonville Center
Thu 19:58:33 31.6358 -84.7081 164° South 450 834 29.000  Level Jacksonville Center
Thu 19:59:33 31.5153 -84.6667 164° South 450 834 29.000  Level Jacksonville Center
Thu 20:00:33 31.4011 -84.6086 157° South 450 834 29.000  Level Jacksonville Center
Thu 20:01:33 31.2850 -84.5506 157° South 450 834 29.000  Level Jacksonville Center
Thu 20:02:33 31.1689 -84.4903 156° South 455 843 29.000  Level Jacksonville Center
Thu 20:03:33 31.0547 -84.4325 157° South 455 843 29.000  Level Jacksonville Center
Thu 20:04:33 30.9364 -84.3700 156° South 455 843 29.000  Level Jacksonville Center
Thu 20:05:33 30.8222 -84.3150 158° South 455 843 29.000 -100 Level Jacksonville Center
Thu 20:06:33 30.7081 -84.2553 156° South 455 843 28.800 -650 Descending Jacksonville Center
Thu 20:07:33 30.6003 -84.1983 156° South 448 830 27.700 -950 Descending Jacksonville Center
Thu 20:08:33 30.5086 -84.1536 157° South 423 784 26.900 -350 Descending Jacksonville Center
Thu 20:09:33 30.3967 -84.0944 155° Southeast 416 771 27.000  Climbing Jacksonville Center
Thu 20:10:33 30.2864 -84.0425 158° South 416 771 26.900  Descending Jacksonville Center
Thu 20:11:33 30.1783 -83.9883 157° South 416 771 27.000  Climbing Jacksonville Center
Thu 20:12:33 30.0703 -83.9319 156° South 416 771 26.900  Descending Jacksonville Center
Thu 20:13:33 29.9619 -83.8781 157° South 416 771 27.000  Climbing Jacksonville Center
Thu 20:14:33 29.8519 -83.8242 157° South 421 779 26.900 -200 Descending Jacksonville Center
Thu 20:15:33 29.7375 -83.7681 157° South 431 798 26.600 -700 Descending Jacksonville Center
Thu 20:16:33 29.6333 -83.7144 156° South 426 789 25.500 -800 Descending Jacksonville Center
Thu 20:17:33 29.5211 -83.6611 158° South 426 789 25.000 -300 Descending Jacksonville Center
Thu 20:18:33 29.4086 -83.6053 157° South 431 798 24.900  Descending Jacksonville Center
Thu 20:19:33 29.2983 -83.5497 156° South 431 798 25.000  Climbing Jacksonville Center
Thu 20:20:33 29.1900 -83.4919 155° Southeast 431 798 24.900 -250 Descending Jacksonville Center
Thu 20:21:33 29.0858 -83.4247 151° Southeast 431 798 24.500 -700 Descending Jacksonville Center
Thu 20:22:33 28.9839 -83.3578 150° Southeast 424 785 23.500 -1.250 Descending Jacksonville Center
Thu 20:23:33 28.8819 -83.2956 152° Southeast 424 785 22.000 -1.800 Descending Jacksonville Center
Thu 20:24:33 28.7819 -83.2289 150° Southeast 419 776 19.900 -1.850 Descending Jacksonville Center
Thu 20:25:33 28.6858 -83.1694 152° Southeast 407 753 18.300 -1.920 Descending Jacksonville Center
Thu 20:26:38 28.5833 -83.1000 149° Southeast 363 673 15.900 -2.277 Descending Tampa TRACON
Thu 20:27:50 28.4833 -83.0333 150° Southeast 339 628 13.100 -1.727 Descending Tampa TRACON
Thu 20:28:50 28.4000 -82.9833 152° Southeast 326 604 12.100 -1.250 Descending Tampa TRACON
Thu 20:29:50 28.3167 -82.9500 161° South 282 523 10.600 -1.632 Descending Tampa TRACON
Thu 20:30:44 28.2667 -82.9167 150° Southeast 283 525 9.000 -1.842 Descending Tampa TRACON
Thu 20:31:44 28.2000 -82.8833 156° South 277 513 7.100 -1.700 Descending Tampa TRACON
Thu 20:32:44 28.1333 -82.8667 168° South 239 443 5.600 -1.250 Descending Tampa TRACON
Thu 20:33:44 28.0667 -82.8667 180° South 194 359 4.600 -1.000 Descending Tampa TRACON
Thu 20:34:44 28.0167 -82.8333 150° Southeast 167 309 3.600 -1.000 Descending Tampa TRACON
Thu 20:35:44 27.9833 -82.8167 156° South 162 299 2.600 -800 Descending Tampa TRACON
Thu 20:36:44 27.9333 -82.8000 164° South 175 323 2.000 -300 Descending Tampa TRACON
Thu 20:37:44 27.8833 -82.7833 164° South 166 307 2.000  Level Tampa TRACON
Thu 20:38:44 27.8500 -82.7667 156° South 155 286 2.000  Level Tampa TRACON
Thu 20:39:38 27.8167 -82.7333 139° Southeast 149 275 2.000 -158 Level Tampa TRACON
Thu 20:40:38 27.8333 -82.6833 69° East 136 253 1.700 -650 Descending Tampa TRACON
Thu 20:41:38 27.8667 -82.6833 360° North 156 290 700 -1.000 Descending Tampa TRACON

Login

Don't have an account? Register now (free) for customized features, flight alerts, and more!